createdAt,value
2018-12-15T00:00:20.288Z,14.03
2018-12-15T00:02:48.414Z,15.40
2018-12-15T00:05:16.595Z,14.55
2018-12-15T00:07:45.560Z,14.20
2018-12-15T00:10:13.771Z,14.23
2018-12-15T00:12:41.922Z,14.40
2018-12-15T00:15:10.055Z,15.88
2018-12-15T00:17:38.255Z,14.40
2018-12-15T00:20:07.020Z,15.23
2018-12-15T00:22:35.163Z,14.95
2018-12-15T00:25:03.757Z,15.10
2018-12-15T00:27:31.904Z,13.90
2018-12-15T00:30:00.137Z,15.18
2018-12-15T00:32:28.240Z,15.87
2018-12-15T00:34:56.385Z,15.05
2018-12-15T00:37:24.575Z,15.32
2018-12-15T00:39:52.756Z,14.43
2018-12-15T00:42:30.506Z,14.70
2018-12-15T00:44:58.714Z,14.13
2018-12-15T00:47:26.864Z,13.83
2018-12-15T00:49:54.999Z,14.13
2018-12-15T00:52:23.131Z,14.43
2018-12-15T00:54:51.303Z,14.18
2018-12-15T00:57:19.422Z,13.33
2018-12-15T00:59:47.580Z,14.73
2018-12-15T01:02:15.814Z,13.53
2018-12-15T01:04:44.031Z,13.48
2018-12-15T01:07:12.423Z,13.60
2018-12-15T01:09:40.587Z,13.55
2018-12-15T01:12:10.137Z,13.07
2018-12-15T01:14:38.255Z,13.90
2018-12-15T01:17:06.430Z,12.97
2018-12-15T01:19:34.600Z,13.20
2018-12-15T01:22:02.722Z,12.30
2018-12-15T01:24:31.055Z,12.37
2018-12-15T01:26:59.226Z,11.40
2018-12-15T01:29:27.429Z,12.03
2018-12-15T01:31:55.543Z,12.00
2018-12-15T01:34:23.722Z,12.10
2018-12-15T01:36:51.971Z,11.97
2018-12-15T01:39:20.087Z,12.70
2018-12-15T01:41:48.251Z,11.57
2018-12-15T01:44:16.367Z,11.05
2018-12-15T01:46:44.608Z,11.90
2018-12-15T01:49:12.736Z,12.00
2018-12-15T01:51:40.843Z,10.17
2018-12-15T01:54:08.974Z,10.60
2018-12-15T01:56:37.185Z,10.67
2018-12-15T01:59:05.444Z,10.20
2018-12-15T02:01:33.547Z,11.17
2018-12-15T02:04:01.752Z,10.65
2018-12-15T02:06:29.982Z,11.25
2018-12-15T02:11:55.279Z,9.47
2018-12-15T02:14:23.460Z,10.53
2018-12-15T02:16:52.973Z,10.78
2018-12-15T02:19:21.140Z,10.88
2018-12-15T02:21:49.335Z,9.90
2018-12-15T02:24:17.521Z,10.60
2018-12-15T02:26:45.653Z,10.93
2018-12-15T02:29:15.669Z,11.12
2018-12-15T02:31:43.823Z,11.03
2018-12-15T02:34:11.975Z,11.33
2018-12-15T02:36:40.112Z,9.93
2018-12-15T02:39:08.890Z,9.75
2018-12-15T02:41:37.086Z,10.82
2018-12-15T02:44:05.211Z,10.45
2018-12-15T02:46:33.335Z,10.87
2018-12-15T02:49:01.531Z,11.03
2018-12-15T02:51:29.675Z,11.63
2018-12-15T02:53:57.856Z,10.40
2018-12-15T02:56:26.048Z,10.70
2018-12-15T02:58:54.226Z,11.38
2018-12-15T03:01:22.376Z,11.00
2018-12-15T03:03:50.560Z,11.80
2018-12-15T03:06:18.717Z,11.03
2018-12-15T03:08:46.866Z,10.90
2018-12-15T03:11:14.976Z,10.80
2018-12-15T03:13:43.180Z,10.32
2018-12-15T03:16:11.312Z,11.53
2018-12-15T03:18:39.590Z,10.08
2018-12-15T03:21:08.603Z,11.67
2018-12-15T03:23:36.751Z,10.25
2018-12-15T03:26:04.896Z,10.90
2018-12-15T03:28:33.141Z,11.50
2018-12-15T03:31:01.832Z,11.22
2018-12-15T03:33:29.985Z,11.68
2018-12-15T03:35:58.073Z,10.87
2018-12-15T03:38:26.208Z,10.75
2018-12-15T03:40:54.397Z,11.10
2018-12-15T03:43:22.611Z,11.08
2018-12-15T03:45:50.808Z,10.77
2018-12-15T03:48:18.916Z,10.70
2018-12-15T03:50:47.039Z,12.03
2018-12-15T03:53:15.284Z,11.40
2018-12-15T03:55:43.409Z,10.83
2018-12-15T03:58:11.601Z,11.80
2018-12-15T04:00:39.772Z,11.78
2018-12-15T04:03:08.284Z,11.70
2018-12-15T04:05:37.602Z,10.83
2018-12-15T04:08:05.739Z,11.43
2018-12-15T04:10:34.008Z,11.17
2018-12-15T04:13:02.312Z,11.48
2018-12-15T04:15:30.552Z,11.23
2018-12-15T04:18:03.680Z,11.70
2018-12-15T04:20:28.807Z,10.93
2018-12-15T04:22:57.066Z,11.15
2018-12-15T04:25:25.239Z,11.57
2018-12-15T04:27:53.658Z,12.13
2018-12-15T04:30:21.863Z,12.60
2018-12-15T04:32:50.076Z,11.93
2018-12-15T04:35:18.384Z,12.37
2018-12-15T04:37:46.527Z,12.70
2018-12-15T04:40:14.901Z,11.05
2018-12-15T04:42:43.076Z,12.07
2018-12-15T04:45:11.265Z,12.60
2018-12-15T04:47:39.619Z,13.95
2018-12-15T04:50:07.852Z,11.60
2018-12-15T04:52:35.986Z,12.20
2018-12-15T04:55:04.689Z,12.05
2018-12-15T04:57:32.829Z,12.35
2018-12-15T05:00:01.011Z,13.68
2018-12-15T05:02:29.158Z,11.87
2018-12-15T05:04:57.293Z,13.25
2018-12-15T05:07:25.422Z,12.30
2018-12-15T05:09:53.568Z,12.75
2018-12-15T05:12:21.671Z,13.67
2018-12-15T05:14:49.832Z,12.53
2018-12-15T05:17:17.981Z,13.58
2018-12-15T05:19:46.158Z,13.50
2018-12-15T05:22:14.931Z,12.83
2018-12-15T05:24:43.703Z,13.43
2018-12-15T05:27:12.324Z,13.80
2018-12-15T05:29:40.513Z,13.38
2018-12-15T05:32:08.660Z,13.80
2018-12-15T05:34:36.789Z,14.03
2018-12-15T05:37:05.013Z,13.37
2018-12-15T05:39:33.126Z,14.23
2018-12-15T05:42:01.368Z,13.83
2018-12-15T05:44:29.577Z,13.40
2018-12-15T05:46:57.683Z,16.57
2018-12-15T05:49:25.837Z,14.38
2018-12-15T05:51:54.008Z,13.38
2018-12-15T05:54:22.142Z,13.43
2018-12-15T05:56:50.263Z,13.97
2018-12-15T05:59:18.427Z,13.20
2018-12-15T06:01:46.565Z,14.03
2018-12-15T06:04:14.698Z,14.25
2018-12-15T06:06:42.977Z,15.67
2018-12-15T06:09:11.118Z,14.80
2018-12-15T06:11:39.295Z,14.60
2018-12-15T06:14:07.431Z,15.10
2018-12-15T06:16:35.690Z,14.00
2018-12-15T06:19:03.999Z,14.28
2018-12-15T06:21:32.081Z,14.80
2018-12-15T06:24:00.427Z,15.28
2018-12-15T06:26:28.587Z,14.13
2018-12-15T06:28:56.760Z,14.45
2018-12-15T06:31:24.877Z,14.13
2018-12-15T06:33:53.027Z,14.93
2018-12-15T06:36:21.206Z,14.27
2018-12-15T06:38:49.581Z,14.13
2018-12-15T06:41:17.839Z,14.23
2018-12-15T06:43:46.082Z,14.50
2018-12-15T06:46:14.248Z,14.87
2018-12-15T06:48:42.402Z,13.85
2018-12-15T06:51:10.527Z,15.17
2018-12-15T06:53:38.780Z,12.73
2018-12-15T06:56:06.920Z,13.53
2018-12-15T06:58:35.112Z,13.83
2018-12-15T07:01:03.345Z,13.72
2018-12-15T07:03:31.568Z,13.43
2018-12-15T07:05:59.765Z,14.13
2018-12-15T07:08:28.571Z,13.10
2018-12-15T07:10:56.697Z,14.10
2018-12-15T07:13:24.860Z,14.23
2018-12-15T07:15:53.043Z,13.97
2018-12-15T07:18:21.183Z,13.22
2018-12-15T07:20:49.293Z,12.73
2018-12-15T07:23:17.435Z,13.50
2018-12-15T07:25:45.712Z,12.90
2018-12-15T07:28:13.871Z,14.05
2018-12-15T07:30:42.256Z,14.28
2018-12-15T07:33:10.407Z,13.15
2018-12-15T07:35:38.594Z,13.53
2018-12-15T07:38:06.806Z,12.58
2018-12-15T07:40:34.903Z,12.43
2018-12-15T07:43:03.183Z,13.43
2018-12-15T07:45:31.511Z,14.33
2018-12-15T07:47:59.702Z,14.03
2018-12-15T07:50:27.855Z,15.15
2018-12-15T07:52:56.011Z,13.53
2018-12-15T07:55:24.170Z,13.58
2018-12-15T07:57:52.424Z,13.83
2018-12-15T08:00:20.580Z,12.10
2018-12-15T08:02:48.765Z,13.60
2018-12-15T08:05:17.026Z,13.10
2018-12-15T08:07:45.258Z,13.45
2018-12-15T08:10:15.404Z,15.28
2018-12-15T08:12:43.576Z,15.23
2018-12-15T08:15:11.917Z,14.33
2018-12-15T08:17:40.021Z,15.13
2018-12-15T08:20:08.690Z,15.00
2018-12-15T08:22:36.852Z,15.10
2018-12-15T08:25:05.761Z,14.75
2018-12-15T08:27:33.883Z,16.02
2018-12-15T08:30:02.057Z,16.70
2018-12-15T08:32:30.148Z,15.03
2018-12-15T08:34:58.334Z,16.07
2018-12-15T08:37:26.426Z,17.53
2018-12-15T08:39:54.577Z,17.02
2018-12-15T08:42:22.670Z,18.03
2018-12-15T08:44:50.903Z,17.57
2018-12-15T08:47:18.997Z,20.27
2018-12-15T08:49:47.133Z,20.10
2018-12-15T08:52:15.249Z,23.43
2018-12-15T08:54:44.020Z,26.62
2018-12-15T08:57:14.034Z,25.23
2018-12-15T08:59:42.245Z,22.93
2018-12-15T09:02:10.382Z,21.63
2018-12-15T09:04:38.528Z,20.92
2018-12-15T09:07:06.641Z,19.80
2018-12-15T09:09:34.811Z,19.00
2018-12-15T09:12:02.998Z,17.93
2018-12-15T09:14:31.164Z,19.20
2018-12-15T09:16:59.287Z,18.40
2018-12-15T09:19:27.540Z,19.27
2018-12-15T09:21:57.405Z,19.33
2018-12-15T09:24:25.971Z,20.30
2018-12-15T09:26:54.189Z,20.37
2018-12-15T09:29:22.324Z,19.98
2018-12-15T09:31:50.480Z,19.80
2018-12-15T09:37:31.849Z,19.47
2018-12-15T09:40:02.016Z,19.48
2018-12-15T09:42:30.156Z,19.05
2018-12-15T09:44:58.340Z,19.05
2018-12-15T09:47:26.440Z,20.47
2018-12-15T09:49:54.647Z,28.27
2018-12-15T09:55:23.519Z,38.38
2018-12-15T09:57:51.657Z,32.17
2018-12-15T10:00:19.865Z,42.70
2018-12-15T10:02:48.051Z,38.92
2018-12-15T10:05:16.222Z,38.40
2018-12-15T10:07:44.351Z,42.45
2018-12-15T10:10:12.585Z,38.83
2018-12-15T10:12:40.715Z,28.87
2018-12-15T10:15:08.970Z,24.87
2018-12-15T10:17:37.143Z,22.75
2018-12-15T10:20:06.634Z,22.67
2018-12-15T10:22:35.062Z,18.62
2018-12-15T10:25:03.446Z,20.72
2018-12-15T10:27:31.666Z,18.00
2018-12-15T10:30:05.559Z,17.55
2018-12-15T10:32:39.520Z,18.90
2018-12-15T10:35:07.804Z,17.35
2018-12-15T10:37:36.202Z,17.50
2018-12-15T10:40:05.347Z,17.48
2018-12-15T10:42:33.729Z,17.82
2018-12-15T10:45:02.018Z,17.33
2018-12-15T10:47:30.180Z,17.95
2018-12-15T10:49:58.372Z,17.60
2018-12-15T10:52:26.574Z,17.50
2018-12-15T10:54:54.740Z,15.63
2018-12-15T10:57:22.987Z,16.37
2018-12-15T10:59:51.233Z,13.00
2018-12-15T11:02:19.419Z,14.57
2018-12-15T11:04:47.593Z,14.57
2018-12-15T11:07:15.871Z,15.53
2018-12-15T11:09:45.186Z,15.63
2018-12-15T11:12:13.404Z,14.17
2018-12-15T11:14:41.620Z,17.43
2018-12-15T11:17:09.814Z,22.00
2018-12-15T11:19:38.002Z,26.60
2018-12-15T11:22:06.172Z,22.20
2018-12-15T11:24:34.380Z,31.97
2018-12-15T11:27:04.153Z,29.80
2018-12-15T11:29:32.640Z,27.93
2018-12-15T11:32:00.902Z,27.43
2018-12-15T11:34:29.108Z,37.15
2018-12-15T11:36:57.277Z,25.70
2018-12-15T11:39:25.467Z,16.82
2018-12-15T11:41:53.799Z,15.03
2018-12-15T11:44:22.044Z,14.07
2018-12-15T11:46:50.310Z,14.27
2018-12-15T11:49:18.730Z,13.13
2018-12-15T11:51:46.932Z,13.03
2018-12-15T11:54:15.255Z,14.90
2018-12-15T11:56:43.441Z,14.07
2018-12-15T11:59:11.929Z,14.45
2018-12-15T12:01:40.190Z,13.37
2018-12-15T12:04:08.482Z,13.48
2018-12-15T12:06:36.843Z,12.80
2018-12-15T12:09:05.855Z,13.08
2018-12-15T12:11:34.167Z,13.32
2018-12-15T12:14:02.470Z,13.25
2018-12-15T12:16:30.743Z,12.47
2018-12-15T12:18:59.044Z,12.88
2018-12-15T12:21:27.275Z,12.43
2018-12-15T12:23:56.882Z,12.78
2018-12-15T12:26:26.143Z,11.73
2018-12-15T12:28:54.531Z,12.43
2018-12-15T12:31:22.739Z,11.77
2018-12-15T12:33:50.938Z,12.40
2018-12-15T12:36:19.090Z,11.70
2018-12-15T12:38:47.353Z,11.83
2018-12-15T12:41:15.611Z,14.67
2018-12-15T12:43:43.911Z,13.25
2018-12-15T12:46:12.252Z,15.77
2018-12-15T12:48:40.466Z,15.10
2018-12-15T12:51:08.682Z,15.53
2018-12-15T12:53:36.942Z,17.10
2018-12-15T12:56:05.400Z,15.27
2018-12-15T12:58:33.758Z,13.18
2018-12-15T13:01:01.991Z,17.43
2018-12-15T13:03:30.187Z,21.12
2018-12-15T13:05:58.529Z,24.07
2018-12-15T13:08:26.841Z,19.52
2018-12-15T13:10:55.201Z,22.87
2018-12-15T13:13:23.456Z,26.77
2018-12-15T13:15:51.703Z,20.23
2018-12-15T13:18:20.068Z,25.30
2018-12-15T13:20:48.470Z,22.13
2018-12-15T13:23:16.795Z,18.52
2018-12-15T13:25:45.112Z,18.53
2018-12-15T13:28:13.446Z,17.50
2018-12-15T13:30:41.722Z,15.83
2018-12-15T13:33:21.978Z,16.50
2018-12-15T13:35:50.219Z,16.70
2018-12-15T13:38:18.579Z,19.60
2018-12-15T13:40:47.006Z,21.40
2018-12-15T13:43:15.282Z,20.77
2018-12-15T13:45:43.659Z,20.17
2018-12-15T13:48:11.829Z,19.15
2018-12-15T13:50:40.267Z,22.70
2018-12-15T13:53:08.725Z,15.78
2018-12-15T13:55:37.014Z,15.40
2018-12-15T13:58:05.457Z,15.15
2018-12-15T14:00:33.772Z,16.30
2018-12-15T14:03:02.300Z,15.53
2018-12-15T14:05:30.679Z,12.90
2018-12-15T14:07:59.063Z,14.18
2018-12-15T14:10:27.260Z,11.93
2018-12-15T14:12:55.693Z,11.83
2018-12-15T14:15:23.962Z,11.40
2018-12-15T14:17:52.298Z,10.45
2018-12-15T14:20:20.657Z,12.13
2018-12-15T14:22:48.917Z,12.00
2018-12-15T14:25:17.166Z,10.35
2018-12-15T14:27:45.379Z,9.83
2018-12-15T14:30:13.688Z,9.43
2018-12-15T14:32:42.075Z,11.00
2018-12-15T14:35:10.291Z,11.35
2018-12-15T14:37:38.504Z,9.75
2018-12-15T14:40:08.853Z,12.47
2018-12-15T14:42:37.398Z,11.28
2018-12-15T14:45:06.080Z,13.48
2018-12-15T14:47:34.546Z,22.02
2018-12-15T14:50:03.996Z,25.48
2018-12-15T14:52:32.425Z,25.35
2018-12-15T14:55:00.638Z,16.90
2018-12-15T14:57:28.974Z,23.00
2018-12-15T14:59:57.256Z,31.02
2018-12-15T15:02:25.536Z,25.03
2018-12-15T15:04:53.803Z,30.52
2018-12-15T15:07:22.002Z,30.77
2018-12-15T15:09:50.291Z,10.32
2018-12-15T15:12:18.556Z,11.00
2018-12-15T15:14:46.901Z,13.13
2018-12-15T15:17:15.189Z,12.07
2018-12-15T15:19:43.532Z,9.70
2018-12-15T15:22:11.840Z,10.27
2018-12-15T15:24:40.110Z,9.68
2018-12-15T15:27:09.845Z,10.07
2018-12-15T15:29:38.096Z,10.48
2018-12-15T15:32:06.300Z,9.97
2018-12-15T15:34:34.703Z,10.70
2018-12-15T15:37:02.890Z,13.50
2018-12-15T15:39:31.212Z,11.25
2018-12-15T15:41:59.688Z,10.72
2018-12-15T15:44:27.911Z,10.10
2018-12-15T15:46:57.336Z,10.30
2018-12-15T15:49:26.009Z,9.38
2018-12-15T15:51:54.351Z,9.63
2018-12-15T15:54:22.729Z,10.05
2018-12-15T15:56:50.973Z,10.77
2018-12-15T15:59:19.644Z,11.40
2018-12-15T16:01:47.822Z,12.73
2018-12-15T16:04:16.105Z,12.73
2018-12-15T16:06:44.577Z,11.13
2018-12-15T16:09:12.899Z,10.50
2018-12-15T16:11:41.447Z,10.97
2018-12-15T16:14:09.765Z,10.18
2018-12-15T16:16:38.454Z,10.10
2018-12-15T16:19:07.255Z,10.28
2018-12-15T16:21:35.579Z,10.17
2018-12-15T16:24:03.926Z,11.10
2018-12-15T16:26:32.555Z,14.80
2018-12-15T16:29:01.365Z,14.50
2018-12-15T16:31:29.984Z,14.50
2018-12-15T16:33:58.795Z,15.15
2018-12-15T16:36:27.986Z,16.73
2018-12-15T16:38:56.529Z,15.00
2018-12-15T16:41:24.745Z,14.73
2018-12-15T16:43:53.197Z,16.67
2018-12-15T16:46:21.414Z,22.67
2018-12-15T16:48:49.650Z,22.42
2018-12-15T16:51:17.870Z,23.85
2018-12-15T16:53:46.121Z,18.57
2018-12-15T16:56:14.449Z,18.50
2018-12-15T16:58:42.700Z,23.87
2018-12-15T17:01:10.946Z,21.13
2018-12-15T17:03:39.475Z,21.02
2018-12-15T17:06:07.818Z,39.20
2018-12-15T17:08:36.205Z,26.35
2018-12-15T17:11:04.560Z,20.57
2018-12-15T17:13:32.844Z,24.10
2018-12-15T17:16:01.016Z,22.17
2018-12-15T17:18:29.494Z,18.17
2018-12-15T17:20:57.887Z,14.67
2018-12-15T17:23:26.320Z,14.43
2018-12-15T17:25:54.606Z,18.80
2018-12-15T17:28:22.834Z,20.27
2018-12-15T17:30:51.011Z,14.57
2018-12-15T17:33:19.359Z,18.62
2018-12-15T17:35:47.639Z,18.10
2018-12-15T17:38:15.887Z,20.23
2018-12-15T17:40:44.082Z,16.37
2018-12-15T17:43:12.355Z,15.43
2018-12-15T17:45:40.604Z,15.57
2018-12-15T17:48:08.823Z,15.20
2018-12-15T17:50:37.092Z,14.80
2018-12-15T17:53:05.561Z,12.82
2018-12-15T17:55:34.274Z,14.20
2018-12-15T17:58:02.499Z,13.95
2018-12-15T18:00:30.713Z,15.33
2018-12-15T18:02:59.236Z,13.80
2018-12-15T18:05:27.509Z,14.53
2018-12-15T18:07:55.836Z,13.50
2018-12-15T18:10:24.169Z,14.03
2018-12-15T18:12:52.518Z,12.75
2018-12-15T18:15:20.759Z,13.05
2018-12-15T18:17:49.030Z,11.40
2018-12-15T18:20:17.515Z,12.20
2018-12-15T18:22:45.786Z,11.28
2018-12-15T18:25:14.175Z,12.03
2018-12-15T18:27:42.472Z,10.48
2018-12-15T18:30:11.058Z,10.70
2018-12-15T18:32:39.260Z,11.55
2018-12-15T18:35:07.617Z,10.35
2018-12-15T18:37:35.827Z,12.18
2018-12-15T18:40:05.051Z,11.97
2018-12-15T18:42:33.406Z,11.45
2018-12-15T18:45:01.621Z,11.75
2018-12-15T18:47:29.984Z,13.17
2018-12-15T18:49:58.554Z,17.90
2018-12-15T18:52:26.734Z,14.03
2018-12-15T18:54:54.940Z,14.38
2018-12-15T18:57:23.279Z,11.77
2018-12-15T18:59:51.759Z,12.23
2018-12-15T19:02:19.962Z,12.63
2018-12-15T19:04:48.267Z,13.45
2018-12-15T19:07:16.512Z,17.03
2018-12-15T19:09:44.858Z,17.17
2018-12-15T19:12:14.720Z,19.33
2018-12-15T19:14:43.146Z,24.50
2018-12-15T19:17:11.379Z,20.93
2018-12-15T19:19:39.597Z,18.15
2018-12-15T19:22:07.978Z,16.77
2018-12-15T19:24:36.273Z,16.27
2018-12-15T19:27:04.530Z,13.88
2018-12-15T19:29:32.826Z,12.35
2018-12-15T19:32:01.191Z,13.68
2018-12-15T19:34:29.398Z,14.25
2018-12-15T19:36:57.684Z,13.95
2018-12-15T19:39:25.954Z,13.28
2018-12-15T19:41:54.299Z,17.70
2018-12-15T19:44:22.563Z,21.35
2018-12-15T19:46:50.737Z,18.80
2018-12-15T19:49:19.112Z,19.05
2018-12-15T19:51:47.579Z,19.48
2018-12-15T19:54:16.013Z,17.60
2018-12-15T19:56:44.296Z,19.27
2018-12-15T19:59:13.707Z,16.90
2018-12-15T20:01:42.056Z,17.70
2018-12-15T20:04:10.413Z,15.43
2018-12-15T20:06:38.714Z,18.73
2018-12-15T20:09:07.513Z,22.22
2018-12-15T20:11:35.700Z,27.67
2018-12-15T20:14:04.056Z,28.25
2018-12-15T20:16:32.345Z,23.77
2018-12-15T20:19:00.669Z,26.80
2018-12-15T20:21:29.161Z,28.87
2018-12-15T20:23:57.668Z,27.58
2018-12-15T20:26:25.963Z,23.80
2018-12-15T20:28:54.208Z,23.45
2018-12-15T20:31:22.479Z,19.97
2018-12-15T20:33:50.754Z,19.45
2018-12-15T20:36:19.032Z,17.73
2018-12-15T20:38:47.494Z,17.10
2018-12-15T20:41:15.682Z,14.00
2018-12-15T20:43:46.472Z,13.70
2018-12-15T20:46:14.996Z,14.50
2018-12-15T20:48:43.202Z,14.43
2018-12-15T20:51:11.641Z,14.13
2018-12-15T20:53:39.922Z,11.90
2018-12-15T20:56:08.104Z,12.33
2018-12-15T20:58:36.361Z,12.03
2018-12-15T21:01:04.622Z,11.10
2018-12-15T21:03:32.839Z,10.10
2018-12-15T21:06:01.114Z,11.00
2018-12-15T21:08:29.471Z,11.55
2018-12-15T21:10:57.715Z,11.70
2018-12-15T21:13:26.032Z,11.85
2018-12-15T21:15:56.436Z,11.60
2018-12-15T21:18:24.928Z,11.63
2018-12-15T21:20:53.339Z,10.60
2018-12-15T21:23:21.690Z,11.45
2018-12-15T21:25:49.965Z,14.00
2018-12-15T21:28:18.230Z,11.30
2018-12-15T21:30:46.478Z,11.40
2018-12-15T21:33:14.710Z,11.00
2018-12-15T21:35:43.212Z,11.07
2018-12-15T21:38:11.471Z,11.80
2018-12-15T21:40:39.928Z,10.93
2018-12-15T21:43:08.396Z,10.85
2018-12-15T21:45:36.711Z,10.67
2018-12-15T21:48:05.058Z,13.40
2018-12-15T21:50:33.311Z,11.53
2018-12-15T21:53:01.633Z,10.55
2018-12-15T21:55:30.137Z,12.03
2018-12-15T21:57:58.633Z,11.50
2018-12-15T22:00:27.067Z,11.83
2018-12-15T22:02:55.274Z,11.68
2018-12-15T22:05:23.480Z,11.90
2018-12-15T22:07:51.761Z,12.07
2018-12-15T22:10:20.144Z,12.15
2018-12-15T22:12:48.378Z,11.60
2018-12-15T22:15:16.761Z,11.18
2018-12-15T22:17:45.209Z,11.25
2018-12-15T22:20:15.445Z,10.68
2018-12-15T22:22:43.967Z,10.75
2018-12-15T22:25:12.334Z,10.23
2018-12-15T22:27:40.638Z,11.83
2018-12-15T22:30:09.006Z,11.22
2018-12-15T22:32:37.485Z,10.45
2018-12-15T22:35:05.877Z,12.33
2018-12-15T22:37:34.089Z,13.10
2018-12-15T22:40:02.613Z,16.55
2018-12-15T22:42:30.858Z,22.22
2018-12-15T22:44:59.200Z,13.40
2018-12-15T22:47:27.636Z,12.87
2018-12-15T22:49:56.141Z,19.42
2018-12-15T22:52:24.444Z,12.80
2018-12-15T22:54:52.691Z,13.78
2018-12-15T22:57:21.077Z,14.57
2018-12-15T22:59:49.318Z,16.12
2018-12-15T23:02:17.691Z,35.90
2018-12-15T23:04:46.117Z,16.70
2018-12-15T23:07:14.386Z,16.73
2018-12-15T23:09:42.596Z,15.68
2018-12-15T23:12:10.873Z,17.00
2018-12-15T23:14:39.280Z,14.13
2018-12-15T23:17:08.018Z,15.38
2018-12-15T23:19:36.489Z,13.22
2018-12-15T23:22:04.853Z,14.28
2018-12-15T23:24:33.147Z,15.18
2018-12-15T23:27:01.430Z,15.93
2018-12-15T23:29:29.835Z,15.83
2018-12-15T23:31:58.153Z,14.53
2018-12-15T23:34:26.522Z,14.50
2018-12-15T23:36:54.750Z,12.23
2018-12-15T23:39:23.186Z,13.68
2018-12-15T23:41:51.521Z,13.80
2018-12-15T23:44:19.856Z,13.60
2018-12-15T23:46:48.125Z,14.43
2018-12-15T23:49:16.366Z,11.63
2018-12-15T23:51:44.638Z,13.13
2018-12-15T23:54:12.834Z,12.63
2018-12-15T23:56:41.233Z,11.60
2018-12-15T23:59:09.555Z,10.43
